Main page
METAR-TAF:

METAR-TAF

Airports :

Baghdad, Iraq

Baghdad International Airport

latitude: 33-15-45N, longitude: 44-14-04E, elevation: 35 m

Current weather observation

The report was made 12 minutes ago, at 17:00 UTC
Wind 10 kt from the West
Temperature 36°C
Humidity 16%
Pressure 1004 hPa
Visibility 10 km or more
no clouds below 1500 m and no cumulonimbus

METAR: ORBI 231700Z 28010KT CAVOK 36/06 Q1004 NOSIG

Time: 20:12 (17:12 UTC)

Forecast

The report was made 7 hours and 12 minutes ago, at 10:00 UTC
Forecast valid from 23 at 12 UTC to 24 at 12 UTC
Wind 18 kt from the West/Northwest
Visibility 10 km or more
no clouds below 1500 m and no cumulonimbus
Becoming
from 23 at 18 UTC to 23 at 20 UTC
Wind 8 kt from the West/Northwest
Becoming
from 24 at 08 UTC to 24 at 10 UTC
Wind 20 kt from the Northwest
Visibility: 8000 m

TAF: ORBI 231000Z 2312/2412 30018KT CAVOK BECMG 2318/2320 30008KT BECMG 2408/2410 32020KT 8000 NSC

Weather observations and forecasts of more than 4000 airports (METAR and TAF reports).

The available stations are represented by yellow and red dots on the map.

Hover mouse over dot to see the name of the station.

Then click to see weather observations and forecasts.

To change the map : click on the green buttons with a black cross to zoom in, on the green button with a dash to zoom out, or on the green arrows for adjacent maps.


METAR-TAF: